Time;durP1;ratioP1;P1;durP2;ratioP2;P2;SDS_P1;SDS_P2;PMS_P1;PMS_P2;Temp;Humidity;BMP_temperature;BMP_pressure;BME280_temperature;BME280_humidity;BME280_pressure;Samples;Min_cycle;Max_cycle;Signal;HPM_P1;HPM_P2
2022/03/18 00:00:25;;;;;;;22.52;12.43;;;11.60;92.60;;;;;;5111773;28;20527;-65
2022/03/18 00:03:29;;;;;;;22.70;12.75;;;11.50;93.20;;;;;;5111587;28;20054;-66
2022/03/18 00:06:34;;;;;;;31.77;11.05;;;11.40;93.40;;;;;;5112929;28;20042;-64
2022/03/18 00:09:40;;;;;;;22.25;11.80;;;11.50;92.50;;;;;;5112711;28;20038;-64
2022/03/18 00:12:45;;;;;;;20.00;11.23;;;11.60;92.80;;;;;;5112688;28;20050;-65
2022/03/18 00:15:51;;;;;;;21.25;12.88;;;11.60;93.00;;;;;;5112218;28;20050;-65
2022/03/18 00:18:56;;;;;;;18.40;12.63;;;11.40;93.50;;;;;;5112828;28;20504;-72
2022/03/18 00:22:01;;;;;;;25.95;12.98;;;11.30;93.70;;;;;;5111101;28;20047;-72
2022/03/18 00:25:06;;;;;;;20.58;12.85;;;11.30;93.60;;;;;;5111977;28;20120;-72
2022/03/18 00:28:10;;;;;;;19.60;11.13;;;11.30;94.00;;;;;;5111879;28;20043;-70
2022/03/18 00:31:15;;;;;;;26.40;11.88;;;11.30;93.80;;;;;;5112073;28;20050;-72
2022/03/18 00:34:20;;;;;;;18.15;11.63;;;11.40;93.10;;;;;;5111771;28;20414;-72
2022/03/18 00:37:24;;;;;;;17.15;10.77;;;11.40;93.60;;;;;;5112917;28;20038;-73
2022/03/18 00:40:27;;;;;;;19.48;13.25;;;11.20;93.90;;;;;;5111126;28;20042;-72
2022/03/18 00:43:32;;;;;;;23.05;13.90;;;11.00;94.60;;;;;;5111274;28;20042;-73
2022/03/18 00:46:36;;;;;;;21.48;13.93;;;11.00;94.70;;;;;;5111911;28;20043;-72
2022/03/18 00:53:02;;;;;;;21.83;13.10;;;10.90;94.90;;;;;;5111336;28;20039;-73
2022/03/18 00:56:06;;;;;;;20.20;12.82;;;10.90;94.90;;;;;;5111456;28;20046;-72
2022/03/18 00:59:11;;;;;;;20.00;12.38;;;10.90;94.90;;;;;;5110043;28;20043;-72
2022/03/18 01:02:15;;;;;;;21.33;11.13;;;10.90;94.40;;;;;;5111628;28;20042;-72
2022/03/18 01:05:18;;;;;;;24.40;12.52;;;11.00;95.10;;;;;;5111512;28;20481;-71
2022/03/18 01:08:22;;;;;;;22.08;13.45;;;10.90;95.00;;;;;;5110949;28;20408;-72
2022/03/18 01:11:26;;;;;;;21.58;11.70;;;10.80;94.80;;;;;;5111023;28;20062;-72
2022/03/18 01:14:30;;;;;;;23.27;11.57;;;10.80;96.70;;;;;;5110832;28;20047;-72
2022/03/18 01:17:35;;;;;;;25.10;12.40;;;10.60;97.50;;;;;;5111088;28;20046;-72
2022/03/18 01:20:38;;;;;;;27.23;12.85;;;10.30;98.50;;;;;;5110744;28;20039;-72
2022/03/18 01:23:43;;;;;;;31.63;14.43;;;10.10;99.00;;;;;;5110975;28;20411;-72
2022/03/18 01:26:47;;;;;;;29.70;14.05;;;9.80;99.70;;;;;;5110828;28;20042;-72
2022/03/18 01:29:51;;;;;;;31.02;12.90;;;9.70;99.40;;;;;;5112677;28;20071;-73
2022/03/18 01:32:56;;;;;;;26.52;13.23;;;9.60;99.20;;;;;;5110796;28;20049;-72
2022/03/18 01:36:00;;;;;;;21.05;11.40;;;9.60;99.40;;;;;;5110964;28;20050;-72
2022/03/18 01:39:05;;;;;;;26.00;13.20;;;9.70;97.50;;;;;;5110409;28;20054;-72
2022/03/18 01:42:09;;;;;;;21.00;12.23;;;9.60;98.90;;;;;;5110657;28;20489;-72
2022/03/18 01:45:13;;;;;;;25.17;12.18;;;9.50;99.20;;;;;;5110503;28;20035;-72
2022/03/18 01:48:18;;;;;;;29.38;13.98;;;9.40;99.30;;;;;;5110268;28;20043;-72
2022/03/18 01:51:22;;;;;;;32.30;13.35;;;9.30;99.30;;;;;;5110244;28;20054;-72
2022/03/18 01:54:47;;;;;;;22.27;12.95;;;9.20;99.50;;;;;;5110628;28;20050;-71
2022/03/18 01:57:52;;;;;;;22.70;12.63;;;9.10;99.90;;;;;;5110573;28;20501;-71
2022/03/18 02:00:57;;;;;;;20.50;11.73;;;8.90;99.90;;;;;;5110072;28;20039;-72
2022/03/18 02:04:01;;;;;;;21.77;13.18;;;8.70;99.90;;;;;;5110635;28;20054;-72
2022/03/18 02:07:05;;;;;;;25.27;14.20;;;8.70;99.90;;;;;;5110500;28;20055;-72
2022/03/18 02:10:10;;;;;;;30.80;14.27;;;8.60;99.90;;;;;;5109725;28;20043;-72
2022/03/18 02:13:15;;;;;;;21.88;12.80;;;8.60;99.90;;;;;;5110481;28;20039;-72
2022/03/18 02:16:19;;;;;;;26.50;14.13;;;8.50;99.90;;;;;;5110413;28;20059;-72
2022/03/18 02:19:23;;;;;;;26.17;13.40;;;8.50;99.90;;;;;;5110053;28;20500;-72
2022/03/18 02:22:35;;;;;;;24.13;13.77;;;8.40;99.90;;;;;;5110177;28;20047;-72
2022/03/18 02:25:39;;;;;;;31.35;13.77;;;8.30;99.90;;;;;;5110888;28;20034;-72
2022/03/18 02:28:43;;;;;;;25.85;14.98;;;8.30;99.90;;;;;;5113533;28;20389;-72
2022/03/18 02:31:47;;;;;;;24.08;14.45;;;8.30;99.90;;;;;;5114000;28;20520;-72
2022/03/18 02:34:51;;;;;;;29.65;14.75;;;8.30;99.90;;;;;;5113979;28;20050;-72
2022/03/18 02:38:00;;;;;;;25.23;14.40;;;8.30;99.90;;;;;;5113734;28;20043;-72
2022/03/18 02:41:04;;;;;;;23.92;14.70;;;8.20;99.90;;;;;;5112378;28;20047;-71
2022/03/18 02:44:08;;;;;;;23.73;14.52;;;8.10;99.90;;;;;;5113918;28;20385;-72
2022/03/18 02:47:12;;;;;;;23.80;13.73;;;8.10;99.90;;;;;;5113753;28;20539;-72
2022/03/18 02:50:16;;;;;;;24.08;14.38;;;8.10;99.90;;;;;;5113345;28;20047;-72
2022/03/18 02:53:20;;;;;;;25.52;14.65;;;8.10;99.90;;;;;;5113868;28;20055;-71
2022/03/18 02:56:25;;;;;;;28.25;13.90;;;8.10;99.90;;;;;;5113591;28;20046;-71
2022/03/18 02:59:29;;;;;;;29.30;14.93;;;8.10;99.90;;;;;;5113262;28;20114;-72
2022/03/18 03:02:33;;;;;;;23.55;14.93;;;8.20;99.90;;;;;;5113466;28;20051;-71
2022/03/18 03:08:59;;;;;;;22.27;13.55;;;8.10;99.90;;;;;;5113050;28;20082;-72
2022/03/18 03:12:03;;;;;;;28.13;14.70;;;8.20;99.90;;;;;;5113411;28;20047;-72
2022/03/18 03:15:08;;;;;;;27.83;13.25;;;8.30;99.90;;;;;;5113152;28;20054;-72
2022/03/18 03:18:12;;;;;;;21.80;14.20;;;8.40;99.90;;;;;;5112723;28;20250;-72
2022/03/18 03:21:16;;;;;;;24.45;15.32;;;8.40;99.90;;;;;;5112958;28;20043;-72
2022/03/18 03:24:20;;;;;;;24.70;14.63;;;8.40;99.90;;;;;;5112755;28;20038;-72
2022/03/18 03:27:31;;;;;;;24.70;14.48;;;8.40;99.90;;;;;;5112981;28;20042;-72
2022/03/18 03:30:35;;;;;;;22.95;13.20;;;8.30;99.90;;;;;;5112777;28;20050;-71
2022/03/18 03:33:39;;;;;;;24.67;14.40;;;8.20;99.90;;;;;;5112407;28;20042;-72
2022/03/18 03:36:42;;;;;;;27.25;13.60;;;8.20;99.90;;;;;;5112766;28;20051;-72
2022/03/18 03:39:47;;;;;;;31.00;15.27;;;8.20;99.90;;;;;;5112334;28;20046;-72
2022/03/18 03:42:52;;;;;;;25.50;14.88;;;8.00;99.90;;;;;;5112616;28;20524;-72
2022/03/18 03:45:56;;;;;;;21.73;13.90;;;8.10;99.90;;;;;;5112478;28;20043;-72
2022/03/18 03:49:00;;;;;;;63.08;27.45;;;8.10;99.90;;;;;;5111991;28;20043;-72
2022/03/18 03:52:08;;;;;;;37.80;19.02;;;8.20;99.90;;;;;;5112380;28;20062;-72
2022/03/18 03:55:13;;;;;;;28.15;16.35;;;8.20;99.90;;;;;;5112382;28;20054;-71
2022/03/18 03:58:17;;;;;;;23.55;14.02;;;8.30;99.90;;;;;;5111733;28;20046;-72
2022/03/18 04:01:20;;;;;;;21.70;14.13;;;8.30;99.90;;;;;;5112117;28;20051;-72
2022/03/18 04:04:28;;;;;;;29.55;15.32;;;8.40;99.90;;;;;;5112175;28;20038;-71
2022/03/18 04:07:32;;;;;;;28.13;15.23;;;8.30;99.90;;;;;;5111884;28;20043;-72
2022/03/18 04:10:42;;;;;;;26.40;15.45;;;8.20;99.90;;;;;;5112094;28;20054;-72
2022/03/18 04:13:46;;;;;;;34.08;17.83;;;8.10;99.90;;;;;;5111978;28;20393;-71
2022/03/18 04:16:51;;;;;;;30.40;15.77;;;8.10;99.90;;;;;;5112099;28;20062;-71
2022/03/18 04:19:55;;;;;;;25.45;14.73;;;8.10;99.90;;;;;;5111636;28;20043;-72
2022/03/18 04:23:00;;;;;;;25.75;16.02;;;8.20;99.90;;;;;;5111836;28;20106;-72
2022/03/18 04:26:04;;;;;;;31.60;16.40;;;8.80;99.90;;;;;;5111934;28;20037;-72
2022/03/18 04:29:08;;;;;;;25.67;15.77;;;8.90;99.90;;;;;;5111161;28;20038;-71
2022/03/18 04:32:13;;;;;;;22.55;14.82;;;8.80;99.90;;;;;;5111573;28;20389;-71
2022/03/18 04:35:17;;;;;;;29.02;15.68;;;8.80;99.90;;;;;;5111875;28;20046;-71
2022/03/18 04:38:20;;;;;;;28.98;17.05;;;8.40;99.90;;;;;;5111272;28;20047;-71
2022/03/18 04:41:25;;;;;;;30.48;17.35;;;8.20;99.90;;;;;;5111676;28;20043;-72
2022/03/18 04:44:30;;;;;;;31.00;16.67;;;8.20;99.90;;;;;;5111872;28;20046;-71
2022/03/18 04:47:35;;;;;;;30.35;16.55;;;8.20;99.90;;;;;;5111799;28;20044;-72
2022/03/18 04:50:39;;;;;;;26.85;15.90;;;8.30;99.90;;;;;;5111698;28;20303;-72
2022/03/18 04:53:43;;;;;;;29.52;15.85;;;8.40;99.90;;;;;;5110475;28;20395;-71
2022/03/18 05:00:10;;;;;;;28.30;15.90;;;8.50;99.90;;;;;;5110863;28;20043;-72
2022/03/18 05:03:14;;;;;;;30.83;16.65;;;8.70;99.90;;;;;;5111112;28;20042;-71
2022/03/18 05:06:18;;;;;;;25.83;16.02;;;8.70;99.90;;;;;;5111163;28;20047;-72
2022/03/18 05:09:23;;;;;;;27.40;16.52;;;8.80;99.90;;;;;;5110783;28;20054;-71
2022/03/18 05:12:27;;;;;;;25.70;16.15;;;8.70;99.90;;;;;;5111187;28;20046;-71
2022/03/18 05:15:32;;;;;;;25.25;16.80;;;8.70;99.90;;;;;;5111033;28;20047;-72
2022/03/18 05:18:36;;;;;;;23.65;15.50;;;8.50;99.90;;;;;;5110737;28;20042;-71
2022/03/18 05:21:40;;;;;;;27.50;15.98;;;8.50;99.90;;;;;;5110542;28;20038;-71
2022/03/18 05:24:45;;;;;;;26.15;16.48;;;8.20;99.90;;;;;;5110696;28;20050;-71
2022/03/18 05:27:50;;;;;;;27.73;16.17;;;8.10;99.90;;;;;;5110519;28;20032;-71
2022/03/18 05:30:54;;;;;;;29.98;16.70;;;8.30;99.90;;;;;;5108219;28;20363;-72
2022/03/18 05:33:58;;;;;;;25.35;15.52;;;8.20;99.90;;;;;;5110835;28;20505;-72
2022/03/18 05:37:05;;;;;;;26.63;16.17;;;8.20;99.90;;;;;;5110814;28;20043;-72
2022/03/18 05:40:10;;;;;;;31.35;16.45;;;8.20;99.90;;;;;;5109976;28;20088;-72
2022/03/18 05:43:14;;;;;;;23.58;15.18;;;8.20;99.90;;;;;;5110557;28;20055;-72
2022/03/18 05:46:18;;;;;;;25.42;15.95;;;8.20;99.90;;;;;;5111181;28;20500;-72
2022/03/18 05:49:22;;;;;;;26.17;16.13;;;8.20;99.90;;;;;;5110261;28;20045;-72
2022/03/18 05:52:27;;;;;;;30.52;18.13;;;8.30;99.90;;;;;;5110675;28;20044;-72
2022/03/18 05:58:56;;;;;;;25.65;16.38;;;8.50;99.90;;;;;;5110174;28;20042;-71
2022/03/18 06:02:01;;;;;;;34.92;16.20;;;8.40;99.90;;;;;;5113012;28;20042;-72
2022/03/18 06:05:06;;;;;;;33.28;17.33;;;8.40;99.90;;;;;;5114478;28;20030;-72
2022/03/18 06:14:54;;;;;;;26.85;15.30;;;8.40;99.90;;;;;;5114634;28;20051;-72
2022/03/18 06:17:58;;;;;;;29.27;16.48;;;8.40;99.90;;;;;;5114700;28;20059;-72
2022/03/18 06:21:06;;;;;;;25.27;15.32;;;8.50;99.90;;;;;;5114256;28;20050;-72
2022/03/18 06:24:10;;;;;;;27.23;16.13;;;8.70;99.90;;;;;;5114229;28;20047;-72
2022/03/18 06:27:14;;;;;;;30.55;16.65;;;8.70;99.90;;;;;;5114240;28;20378;-72
2022/03/18 06:30:18;;;;;;;26.75;16.95;;;8.80;99.90;;;;;;5113533;28;20054;-72
2022/03/18 06:33:23;;;;;;;27.30;17.15;;;9.00;99.90;;;;;;5113360;28;20412;-72
2022/03/18 06:36:28;;;;;;;29.08;16.02;;;9.20;99.90;;;;;;5113155;28;20051;-72
2022/03/18 06:39:33;;;;;;;31.58;16.52;;;9.40;99.90;;;;;;5113571;28;20058;-72
2022/03/18 06:42:36;;;;;;;34.10;17.38;;;9.50;99.90;;;;;;5113927;28;20070;-72
2022/03/18 06:45:41;;;;;;;26.83;15.20;;;9.70;99.90;;;;;;5114083;28;20038;-71
2022/03/18 06:48:46;;;;;;;25.25;16.40;;;9.70;99.90;;;;;;5113419;28;20062;-72
2022/03/18 06:51:50;;;;;;;25.20;16.45;;;9.90;99.90;;;;;;5113756;28;20497;-72
2022/03/18 06:54:54;;;;;;;24.13;15.18;;;10.10;99.90;;;;;;5113569;28;20391;-72
2022/03/18 06:57:58;;;;;;;23.15;15.02;;;10.60;99.90;;;;;;5113666;28;20046;-72
2022/03/18 07:01:02;;;;;;;24.42;14.55;;;11.10;99.90;;;;;;5113583;28;20046;-72
2022/03/18 07:04:06;;;;;;;22.55;15.35;;;11.40;99.90;;;;;;5113094;28;20034;-72
2022/03/18 07:07:11;;;;;;;20.48;14.45;;;11.50;99.90;;;;;;5112446;28;20497;-73
2022/03/18 07:10:16;;;;;;;24.77;16.25;;;11.60;99.60;;;;;;5112874;28;20114;-72
2022/03/18 07:13:27;;;;;;;24.90;14.10;;;11.60;99.90;;;;;;5113248;28;20382;-72
2022/03/18 07:19:53;;;;;;;25.73;15.00;;;12.00;98.40;;;;;;5112561;28;20039;-72
2022/03/18 07:23:11;;;;;;;22.70;15.50;;;12.30;98.40;;;;;;5113353;28;20232;-72
2022/03/18 07:26:15;;;;;;;27.13;14.52;;;12.60;97.30;;;;;;5112949;28;20046;-71
2022/03/18 07:29:19;;;;;;;24.73;15.85;;;12.70;97.20;;;;;;5111101;28;20109;-72
2022/03/18 07:32:24;;;;;;;24.73;14.57;;;12.30;99.30;;;;;;5108754;28;20051;-72
2022/03/18 07:35:27;;;;;;;23.50;13.98;;;12.40;99.90;;;;;;5113794;28;20046;-72
2022/03/18 07:38:32;;;;;;;19.80;13.60;;;12.50;98.20;;;;;;5109918;28;20042;-71
2022/03/18 07:41:35;;;;;;;21.33;13.88;;;12.70;96.50;;;;;;5111279;28;20035;-72
2022/03/18 07:44:40;;;;;;;21.75;13.40;;;13.00;96.60;;;;;;5108575;28;20038;-71
2022/03/18 07:47:45;;;;;;;21.05;14.48;;;13.30;95.90;;;;;;5108423;28;20039;-65
2022/03/18 07:50:49;;;;;;;20.55;14.00;;;13.60;95.90;;;;;;5109577;28;20035;-64
2022/03/18 07:53:53;;;;;;;22.75;13.02;;;13.80;94.90;;;;;;5110995;28;20066;-64
2022/03/18 07:56:57;;;;;;;29.38;14.20;;;13.70;95.00;;;;;;5102426;28;20529;-63
2022/03/18 08:00:02;;;;;;;25.10;13.95;;;13.30;95.30;;;;;;5111272;28;20035;-63
2022/03/18 08:03:06;;;;;;;20.23;13.25;;;13.20;95.10;;;;;;5110992;28;20389;-64
2022/03/18 08:06:10;;;;;;;22.75;14.27;;;13.30;95.40;;;;;;5111231;28;20027;-63
2022/03/18 08:09:14;;;;;;;20.33;14.15;;;13.50;95.20;;;;;;5097625;28;20038;-62
2022/03/18 08:12:21;;;;;;;19.13;12.75;;;13.60;94.60;;;;;;5104432;28;20386;-65
2022/03/18 08:15:28;;;;;;;20.15;13.63;;;13.80;94.60;;;;;;5099966;28;20046;-65
2022/03/18 08:18:32;;;;;;;19.73;13.73;;;13.80;94.80;;;;;;5110526;28;20054;-64
2022/03/18 08:21:41;;;;;;;20.63;14.18;;;14.00;95.00;;;;;;5112468;28;20058;-64
2022/03/18 08:24:45;;;;;;;22.98;14.27;;;14.10;94.10;;;;;;5108913;28;20039;-65
2022/03/18 08:27:50;;;;;;;23.92;14.80;;;14.30;94.10;;;;;;5109580;28;20035;-64
2022/03/18 08:30:53;;;;;;;21.45;13.57;;;14.80;93.90;;;;;;5100232;28;20050;-65
2022/03/18 08:33:58;;;;;;;20.05;14.15;;;15.10;93.40;;;;;;5105143;28;20039;-63
2022/03/18 08:37:05;;;;;;;21.83;14.27;;;15.50;92.90;;;;;;5103889;28;20059;-64
2022/03/18 08:40:12;;;;;;;20.65;14.15;;;15.50;92.50;;;;;;5104584;28;20035;-64
2022/03/18 08:43:15;;;;;;;19.08;13.35;;;15.50;92.80;;;;;;5103416;28;20039;-66
2022/03/18 08:46:19;;;;;;;20.00;13.70;;;15.50;92.80;;;;;;5091251;28;20382;-63
2022/03/18 08:49:25;;;;;;;22.02;14.52;;;15.80;92.70;;;;;;5097723;28;20043;-65
2022/03/18 08:52:30;;;;;;;20.55;12.88;;;15.80;92.30;;;;;;5107815;28;20051;-65
2022/03/18 08:55:34;;;;;;;20.33;14.02;;;16.00;91.80;;;;;;5108829;28;20043;-64
2022/03/18 08:58:38;;;;;;;20.52;13.65;;;16.20;92.00;;;;;;5105158;28;20046;-65
2022/03/18 09:01:43;;;;;;;22.50;13.52;;;16.60;91.20;;;;;;5111341;28;20063;-64
2022/03/18 09:04:48;;;;;;;23.73;14.57;;;16.60;90.80;;;;;;5111648;28;20377;-64
2022/03/18 09:07:52;;;;;;;22.50;15.45;;;16.60;91.10;;;;;;5110870;28;20390;-64
2022/03/18 09:10:56;;;;;;;22.58;13.02;;;16.40;91.40;;;;;;5110967;28;20050;-66
2022/03/18 09:14:00;;;;;;;22.95;13.80;;;16.30;91.40;;;;;;5100569;28;20055;-66
2022/03/18 09:17:05;;;;;;;16.40;12.40;;;17.00;91.40;;;;;;5105902;28;20039;-65
2022/03/18 09:20:11;;;;;;;17.33;12.75;;;18.20;89.80;;;;;;5105753;28;20035;-65
2022/03/18 09:23:16;;;;;;;17.08;12.98;;;19.00;88.60;;;;;;5100739;28;20047;-65
2022/03/18 09:26:20;;;;;;;19.98;13.05;;;19.60;86.10;;;;;;5098434;28;20034;-66
2022/03/18 09:29:25;;;;;;;15.13;11.90;;;20.20;86.50;;;;;;5102361;28;20051;-65
2022/03/18 09:32:29;;;;;;;20.83;13.43;;;19.80;85.10;;;;;;5105701;28;20039;-64
2022/03/18 09:35:36;;;;;;;20.50;12.30;;;19.50;85.10;;;;;;5101381;28;20046;-64
2022/03/18 09:38:41;;;;;;;23.15;14.32;;;19.30;83.90;;;;;;5107939;28;20506;-64
2022/03/18 09:41:45;;;;;;;19.17;13.45;;;19.00;84.40;;;;;;5102738;28;20059;-64
2022/03/18 09:44:49;;;;;;;16.50;11.68;;;18.40;86.50;;;;;;5094992;28;20058;-64
2022/03/18 09:47:55;;;;;;;17.40;12.25;;;17.50;85.20;;;;;;5107953;28;20050;-65
2022/03/18 09:50:59;;;;;;;18.40;11.35;;;16.80;86.60;;;;;;5109276;28;20039;-64
2022/03/18 09:54:06;;;;;;;19.88;12.60;;;17.10;86.70;;;;;;5111164;28;20244;-65
2022/03/18 09:57:11;;;;;;;16.65;12.25;;;18.00;87.00;;;;;;5098465;28;20418;-65
2022/03/18 10:00:15;;;;;;;19.90;12.57;;;18.60;84.90;;;;;;5101679;28;20039;-65
2022/03/18 10:03:19;;;;;;;19.48;11.05;;;19.70;84.70;;;;;;5109898;28;20054;-65
2022/03/18 10:06:34;;;;;;;18.42;10.82;;;19.90;82.00;;;;;;5108827;28;20646;-65
2022/03/18 10:09:40;;;;;;;14.20;11.30;;;21.80;82.10;;;;;;5099702;28;20043;-64
2022/03/18 10:12:49;;;;;;;21.08;10.50;;;23.00;77.90;;;;;;5100782;28;20059;-64
2022/03/18 10:15:54;;;;;;;15.77;11.57;;;21.50;75.60;;;;;;5102889;28;20055;-65
2022/03/18 10:18:58;;;;;;;17.60;10.88;;;19.90;77.50;;;;;;5103120;28;20043;-64
2022/03/18 10:22:05;;;;;;;16.50;11.05;;;18.50;80.40;;;;;;5107164;28;20054;-65
2022/03/18 10:25:28;;;;;;;18.40;11.20;;;18.20;80.60;;;;;;5106937;28;20035;-65
2022/03/18 10:28:40;;;;;;;16.02;11.25;;;18.00;81.20;;;;;;5100407;28;20043;-64
2022/03/18 10:31:59;;;;;;;17.02;11.50;;;17.80;80.80;;;;;;5099086;28;20062;-65
2022/03/18 10:38:29;;;;;;;19.25;10.50;;;17.20;83.80;;;;;;5107214;28;20042;-64
2022/03/18 10:41:37;;;;;;;16.63;11.55;;;16.30;83.10;;;;;;5096998;28;20039;-64
2022/03/18 10:44:50;;;;;;;19.17;11.25;;;16.10;84.20;;;;;;5104514;28;20050;-65
2022/03/18 10:47:54;;;;;;;18.20;12.02;;;16.30;84.50;;;;;;5107284;28;20058;-65
2022/03/18 10:51:08;;;;;;;17.33;11.45;;;16.70;84.00;;;;;;5104684;28;20035;-65
2022/03/18 10:54:12;;;;;;;15.82;11.27;;;16.60;84.00;;;;;;5103193;28;20027;-65
2022/03/18 10:57:18;;;;;;;19.52;11.60;;;16.50;84.30;;;;;;5109321;28;20034;-65
2022/03/18 11:00:25;;;;;;;18.42;11.13;;;16.50;84.50;;;;;;5104745;28;20042;-65
2022/03/18 11:03:31;;;;;;;20.85;11.82;;;16.20;84.20;;;;;;5105940;28;20038;-64
2022/03/18 11:06:36;;;;;;;27.73;12.20;;;15.70;85.20;;;;;;5101308;28;20039;-64
2022/03/18 11:13:12;;;;;;;17.35;10.75;;;15.80;84.60;;;;;;5108137;28;20043;-64
2022/03/18 11:16:23;;;;;;;20.85;10.85;;;15.90;83.90;;;;;;5103337;28;20054;-64
2022/03/18 11:19:28;;;;;;;20.23;12.25;;;16.10;83.90;;;;;;5112484;28;20046;-64
2022/03/18 11:22:35;;;;;;;20.75;10.50;;;15.80;84.60;;;;;;5105316;28;20050;-65
2022/03/18 11:25:40;;;;;;;16.63;10.13;;;15.60;83.30;;;;;;5107238;28;20371;-64
2022/03/18 11:28:45;;;;;;;17.83;10.95;;;15.40;85.30;;;;;;5106592;28;20035;-65
2022/03/18 11:32:12;;;;;;;20.10;12.07;;;15.70;85.40;;;;;;5108294;28;20059;-66
2022/03/18 11:35:18;;;;;;;19.70;11.13;;;15.90;84.90;;;;;;5095510;28;20039;-65
2022/03/18 11:38:28;;;;;;;14.40;10.77;;;15.40;85.30;;;;;;5102376;28;20039;-65
2022/03/18 11:41:54;;;;;;;14.07;10.13;;;15.50;84.90;;;;;;5102753;28;20059;-66
2022/03/18 11:45:01;;;;;;;21.38;10.15;;;15.50;84.90;;;;;;5106241;28;20492;-66
2022/03/18 11:48:36;;;;;;;23.65;11.75;;;15.70;85.40;;;;;;5107674;28;20496;-65
2022/03/18 11:51:43;;;;;;;17.50;10.85;;;15.80;84.60;;;;;;5106310;28;20038;-66
2022/03/18 11:54:54;;;;;;;16.60;11.25;;;16.20;84.90;;;;;;5104545;28;20039;-65
2022/03/18 11:57:58;;;;;;;16.73;10.27;;;16.80;84.20;;;;;;5108957;28;20065;-65
2022/03/18 12:01:02;;;;;;;15.02;10.65;;;16.90;83.40;;;;;;5104340;28;20059;-66
2022/03/18 12:04:07;;;;;;;13.73;10.35;;;17.40;83.90;;;;;;5101383;28;20382;-64
2022/03/18 12:07:11;;;;;;;16.70;10.20;;;17.60;81.50;;;;;;5102381;28;20031;-66
2022/03/18 12:10:31;;;;;;;15.90;9.65;;;17.70;80.10;;;;;;5104430;28;20043;-65
2022/03/18 12:13:35;;;;;;;19.30;9.43;;;18.00;80.60;;;;;;5105343;28;20050;-66
2022/03/18 12:16:39;;;;;;;19.60;10.85;;;18.20;80.00;;;;;;5110970;28;20109;-66
2022/03/18 12:19:59;;;;;;;16.27;11.00;;;17.90;80.50;;;;;;5102864;28;20042;-66
2022/03/18 12:23:08;;;;;;;15.77;9.88;;;17.20;81.80;;;;;;5110183;28;20129;-66
2022/03/18 12:26:13;;;;;;;17.15;10.57;;;17.50;81.70;;;;;;5107456;28;20038;-65
2022/03/18 12:29:28;;;;;;;16.90;10.57;;;17.50;81.40;;;;;;5102612;28;20039;-63
2022/03/18 12:32:37;;;;;;;15.32;10.52;;;17.10;81.80;;;;;;5106616;28;20035;-65
2022/03/18 12:35:45;;;;;;;14.07;11.02;;;16.90;82.50;;;;;;5111709;28;20058;-63
2022/03/18 12:38:49;;;;;;;19.88;11.18;;;16.10;83.10;;;;;;5104698;28;20051;-64
2022/03/18 12:42:10;;;;;;;21.42;11.55;;;16.30;83.80;;;;;;5105197;28;20047;-64
2022/03/18 12:45:29;;;;;;;17.05;11.07;;;16.50;82.70;;;;;;5103097;28;20042;-65
2022/03/18 12:48:33;;;;;;;21.13;10.77;;;16.40;82.70;;;;;;5098926;28;20034;-65
2022/03/18 12:51:38;;;;;;;22.00;9.55;;;16.70;82.40;;;;;;5106046;28;20035;-65
2022/03/18 12:55:09;;;;;;;19.63;10.82;;;16.90;82.60;;;;;;5090860;28;20047;-65
2022/03/18 12:58:17;;;;;;;15.30;10.07;;;17.10;83.00;;;;;;5101962;28;20039;-65
2022/03/18 13:01:21;;;;;;;16.73;10.05;;;16.70;79.30;;;;;;5109073;28;20043;-65
2022/03/18 13:04:25;;;;;;;22.52;11.20;;;16.40;81.00;;;;;;5104129;28;20507;-64
2022/03/18 13:07:30;;;;;;;14.18;9.40;;;16.50;82.20;;;;;;5100356;28;20516;-65
2022/03/18 13:10:35;;;;;;;15.90;10.40;;;16.30;82.90;;;;;;5101359;28;20047;-65
2022/03/18 13:13:50;;;;;;;20.70;11.13;;;16.70;83.90;;;;;;5103952;28;20047;-65
2022/03/18 13:16:54;;;;;;;14.50;10.60;;;16.80;81.50;;;;;;5100485;28;20058;-66
2022/03/18 13:19:58;;;;;;;16.60;10.18;;;16.80;80.70;;;;;;5106464;28;20038;-65
2022/03/18 13:23:03;;;;;;;18.15;11.32;;;17.00;81.30;;;;;;5103999;28;20038;-65
2022/03/18 13:26:12;;;;;;;18.10;11.15;;;17.00;80.60;;;;;;5107652;28;20039;-65
2022/03/18 13:29:16;;;;;;;16.83;11.50;;;17.00;81.00;;;;;;5096741;28;20031;-64
2022/03/18 13:35:47;;;;;;;21.50;11.80;;;16.40;81.10;;;;;;5102146;28;20046;-65
2022/03/18 13:38:54;;;;;;;17.85;10.70;;;15.90;82.20;;;;;;5104037;28;20063;-64
2022/03/18 13:42:02;;;;;;;21.70;10.82;;;15.70;83.10;;;;;;5098098;28;20501;-65
2022/03/18 13:45:07;;;;;;;17.08;11.27;;;15.30;82.10;;;;;;5107139;28;20371;-65
2022/03/18 13:48:12;;;;;;;20.20;10.63;;;15.20;82.80;;;;;;5105158;28;20042;-65
2022/03/18 13:51:31;;;;;;;19.63;11.77;;;15.10;82.70;;;;;;5102631;28;20042;-65
2022/03/18 13:54:44;;;;;;;22.73;11.40;;;15.10;83.50;;;;;;5099144;28;20050;-64
2022/03/18 13:57:50;;;;;;;28.85;9.23;;;15.10;83.10;;;;;;5102140;28;20034;-64
2022/03/18 14:01:07;;;;;;;17.48;9.68;;;14.50;81.10;;;;;;5101808;28;20804;-64
2022/03/18 14:04:13;;;;;;;15.85;10.25;;;14.30;81.10;;;;;;5099914;28;20051;-64
2022/03/18 14:07:17;;;;;;;17.10;10.32;;;14.50;83.30;;;;;;5103305;28;20042;-64
2022/03/18 14:10:23;;;;;;;16.42;9.55;;;14.40;83.30;;;;;;5099028;28;20043;-64
2022/03/18 14:13:30;;;;;;;16.73;9.10;;;14.40;82.90;;;;;;5104037;28;20038;-64
2022/03/18 14:16:34;;;;;;;15.68;9.45;;;14.30;80.90;;;;;;5096009;28;20043;-64
2022/03/18 14:19:50;;;;;;;22.42;11.20;;;14.20;83.20;;;;;;5099559;28;20043;-63
2022/03/18 14:22:57;;;;;;;15.48;9.88;;;14.10;83.30;;;;;;5110516;28;20035;-72
2022/03/18 14:26:10;;;;;;;16.98;10.73;;;14.20;82.90;;;;;;5107162;28;20393;-72
2022/03/18 14:29:14;;;;;;;23.42;10.13;;;14.40;83.50;;;;;;5105298;28;20688;-72
2022/03/18 14:32:18;;;;;;;17.42;10.20;;;14.40;82.50;;;;;;5104890;28;20055;-73
2022/03/18 14:35:22;;;;;;;19.20;8.88;;;14.30;82.20;;;;;;5106254;28;20489;-71
2022/03/18 14:38:27;;;;;;;15.43;9.98;;;14.20;81.10;;;;;;5099410;28;20493;-64
2022/03/18 14:41:32;;;;;;;22.15;10.02;;;14.40;82.90;;;;;;5102733;28;20062;-71
2022/03/18 14:44:36;;;;;;;16.40;9.40;;;14.50;81.60;;;;;;5101883;28;20047;-72
2022/03/18 14:47:44;;;;;;;15.68;10.35;;;14.50;82.50;;;;;;5104902;28;20047;-72
2022/03/18 14:50:49;;;;;;;15.50;8.55;;;14.50;81.50;;;;;;5100413;28;20072;-73
2022/03/18 14:53:52;;;;;;;20.48;10.10;;;14.80;80.50;;;;;;5104868;28;20079;-64
2022/03/18 14:56:57;;;;;;;18.20;9.13;;;15.00;81.20;;;;;;5104686;28;20043;-64
2022/03/18 15:00:04;;;;;;;18.55;9.90;;;15.20;80.40;;;;;;5102286;28;20039;-65
2022/03/18 15:03:08;;;;;;;13.98;8.75;;;15.20;78.60;;;;;;5102146;28;20047;-65
2022/03/18 15:06:13;;;;;;;17.52;9.95;;;15.50;79.70;;;;;;5104272;28;20038;-64
2022/03/18 15:09:17;;;;;;;17.75;10.35;;;15.70;79.20;;;;;;5099244;28;20481;-65
2022/03/18 15:12:22;;;;;;;17.13;9.00;;;15.50;79.70;;;;;;5101052;28;20039;-64
2022/03/18 15:15:26;;;;;;;17.95;8.77;;;15.60;77.50;;;;;;5102251;28;20035;-65
2022/03/18 15:18:30;;;;;;;18.45;9.02;;;15.30;78.70;;;;;;5102507;28;20058;-64
2022/03/18 15:21:34;;;;;;;15.85;10.07;;;15.00;79.00;;;;;;5101825;28;20046;-64
2022/03/18 15:24:38;;;;;;;12.35;8.77;;;15.00;79.70;;;;;;5102483;28;20038;-64
2022/03/18 15:27:42;;;;;;;15.48;10.13;;;15.00;80.10;;;;;;5104437;28;20270;-65
2022/03/18 15:30:46;;;;;;;13.88;10.10;;;14.60;81.40;;;;;;5107381;28;20055;-65
2022/03/18 15:33:52;;;;;;;14.73;9.57;;;14.50;80.50;;;;;;5109769;28;20047;-64
2022/03/18 15:36:55;;;;;;;17.98;9.85;;;14.50;80.50;;;;;;5102395;28;20051;-71
2022/03/18 15:40:02;;;;;;;20.58;12.02;;;14.10;82.00;;;;;;5106083;28;20035;-72
2022/03/18 15:43:09;;;;;;;15.63;9.75;;;14.00;81.90;;;;;;5105387;28;20054;-64
2022/03/18 15:46:15;;;;;;;16.35;9.75;;;13.90;82.40;;;;;;5105215;28;20043;-65
2022/03/18 15:49:19;;;;;;;20.25;11.98;;;13.90;81.10;;;;;;5100078;28;20034;-63
2022/03/18 15:52:23;;;;;;;27.58;17.63;;;13.80;81.70;;;;;;5105413;28;20042;-65
2022/03/18 15:55:28;;;;;;;17.33;11.35;;;13.70;83.00;;;;;;5104245;28;20509;-64
2022/03/18 15:58:33;;;;;;;42.22;24.67;;;13.50;83.00;;;;;;5102260;28;20047;-65
2022/03/18 16:01:38;;;;;;;20.75;10.70;;;13.50;83.20;;;;;;5104517;28;20043;-65
2022/03/18 16:04:42;;;;;;;16.60;9.73;;;13.50;82.60;;;;;;5098718;28;20043;-65
2022/03/18 16:07:45;;;;;;;19.08;9.88;;;13.40;82.50;;;;;;5100490;28;20494;-64
2022/03/18 16:10:54;;;;;;;17.10;9.35;;;12.90;84.60;;;;;;5099954;28;20031;-64
2022/03/18 16:13:59;;;;;;;18.55;9.60;;;12.70;84.80;;;;;;5096284;28;20046;-64
2022/03/18 16:17:03;;;;;;;27.65;15.50;;;12.50;83.70;;;;;;5105136;28;20051;-64
2022/03/18 16:20:13;;;;;;;18.90;9.77;;;12.50;85.20;;;;;;5107310;28;20066;-65